^^
Datos históricos de la estación: Murcia-Puente Tocinos
Diario Informe para Diciembre 29, 2019 Unidades:  Ambas    Ingés   Métrico
Diario Semanal Mensual Anual
  Máxima: Mínima: Promedio:
Temperatura: 60.6 °F /  15.9 °C 47.8 °F /  8.8 °C 52.5 °F /  11.4 °C
Punto de rocio: 49.3 °F /  9.6 °C 45.1 °F /  7.3 °C 47.5 °F /  8.6 °C
Humedad: 96% 63.3% 84%
Velocidad viento: 5.4mph /  8.7km/h - 2.5mph /  4km/h
Racha viento: 9mph /  14.5km/h - -
Viento- - SSE
Presión: 30.5 in /  1032.8 hPa 30.4 in /  1028.5 hPa -
Precipitación: 0.01 in /  0.3 mm    
 
 
Tabla de datos para Diciembre 29, 2019
Hora Temperatura Punto de rocio Presión Viento Velocidad viento Racha viento Humedad Intensidad lluvia(por hora) Nubes
00:04 49.5 °F /  9.7 °C 46.8 °F /  8.2 °C 30.4in /  1030.8hPa ENE 0.9mph /  1.4km/h 3mph /  4.8km/h 90% 0in /  0.0mm
00:09 49.5 °F /  9.7 °C 46.6 °F /  8.1 °C 30.4in /  1030.8hPa ENE 1.4mph /  2.2km/h 4.7mph /  7.6km/h 90% 0in /  0.0mm
00:14 48.9 °F /  9.4 °C 46.2 °F /  7.9 °C 30.4in /  1030.7hPa Este 1.6mph /  2.6km/h 5mph /  8km/h 90% 0in /  0.0mm
00:19 48.7 °F /  9.3 °C 46 °F /  7.8 °C 30.4in /  1030.7hPa ENE 1.8mph /  2.9km/h 4.6mph /  7.4km/h 90% 0in /  0.0mm
00:24 48.6 °F /  9.2 °C 45.9 °F /  7.7 °C 30.4in /  1030.7hPa Este 1.9mph /  3.1km/h 5mph /  8km/h 90% 0in /  0.0mm
00:29 48.4 °F /  9.1 °C 45.7 °F /  7.6 °C 30.4in /  1030.7hPa SE 2mph /  3.2km/h 5.2mph /  8.4km/h 90% 0in /  0.0mm
00:34 48.2 °F /  9 °C 45.5 °F /  7.5 °C 30.4in /  1030.7hPa SE 2.9mph /  4.7km/h 5.9mph /  9.5km/h 90.3% 0in /  0.0mm
00:39 48.2 °F /  9 °C 45.7 °F /  7.6 °C 30.4in /  1030.7hPa Sur 3.6mph /  5.8km/h 6.9mph /  11.1km/h 91% 0in /  0.0mm
00:44 48.6 °F /  9.2 °C 46.2 °F /  7.9 °C 30.4in /  1030.7hPa Sur 4mph /  6.5km/h 7mph /  11.3km/h 91.8% 0in /  0.0mm
00:49 48.7 °F /  9.3 °C 46.6 °F /  8.1 °C 30.4in /  1030.7hPa SSO 4.3mph /  6.9km/h 8.1mph /  13km/h 92% 0in /  0.0mm
00:54 49.1 °F /  9.5 °C 47.1 °F /  8.4 °C 30.4in /  1030.7hPa SSO 4.5mph /  7.3km/h 8.1mph /  13km/h 92.6% 0in /  0.0mm
00:59 49.5 °F /  9.7 °C 47.3 °F /  8.5 °C 30.4in /  1030.6hPa SO 4.7mph /  7.6km/h 7mph /  11.3km/h 93% 0in /  0.0mm
01:04 49.5 °F /  9.7 °C 47.5 °F /  8.6 °C 30.4in /  1030.6hPa SO 4.4mph /  7.1km/h 7mph /  11.3km/h 93% 0in /  0.0mm
01:09 49.5 °F /  9.7 °C 47.7 °F /  8.7 °C 30.4in /  1030.6hPa SO 4.3mph /  6.9km/h 7mph /  11.3km/h 93.3% 0in /  0.0mm
01:14 49.6 °F /  9.8 °C 48 °F /  8.9 °C 30.4in /  1030.5hPa SSO 4.1mph /  6.6km/h 7mph /  11.3km/h 94% 0in /  0.0mm
01:19 49.6 °F /  9.8 °C 48 °F /  8.9 °C 30.4in /  1030.5hPa Sur 4mph /  6.5km/h 7.4mph /  11.9km/h 94% 0in /  0.0mm
01:24 49.6 °F /  9.8 °C 47.8 °F /  8.8 °C 30.4in /  1030.6hPa SSO 4.2mph /  6.8km/h 7mph /  11.3km/h 94% 0in /  0.0mm
01:29 49.6 °F /  9.8 °C 48.2 °F /  9 °C 30.4in /  1030.6hPa SSO 4.3mph /  6.9km/h 7mph /  11.3km/h 94.4% 0in /  0.0mm
01:34 49.6 °F /  9.8 °C 48.4 °F /  9.1 °C 30.4in /  1030.6hPa SO 4.1mph /  6.6km/h 6mph /  9.7km/h 95% 0in /  0.0mm
01:39 49.6 °F /  9.8 °C 48.4 °F /  9.1 °C 30.4in /  1030.6hPa SO 4mph /  6.5km/h 6mph /  9.7km/h 95% 0in /  0.0mm
01:44 49.8 °F /  9.9 °C 48.4 °F /  9.1 °C 30.4in /  1030.5hPa SO 3mph /  4.9km/h 5mph /  8km/h 95% 0in /  0.0mm
01:49 49.8 °F /  9.9 °C 48.4 °F /  9.1 °C 30.4in /  1030.5hPa SO 2.4mph /  3.9km/h 5.2mph /  8.4km/h 95% 0in /  0.0mm
01:54 49.8 °F /  9.9 °C 48.4 °F /  9.1 °C 30.4in /  1030.5hPa Sur 2.7mph /  4.3km/h 5.8mph /  9.3km/h 95% 0in /  0.0mm
01:59 49.8 °F /  9.9 °C 48.4 °F /  9.1 °C 30.4in /  1030.5hPa SE 2.9mph /  4.7km/h 6mph /  9.7km/h 95% 0in /  0.0mm
02:04 49.6 °F /  9.8 °C 48.4 °F /  9.1 °C 30.4in /  1030.5hPa ESE 3mph /  4.9km/h 5.2mph /  8.4km/h 95% 0in /  0.0mm
02:09 49.5 °F /  9.7 °C 48 °F /  8.9 °C 30.4in /  1030.5hPa ESE 3.1mph /  5km/h 5.2mph /  8.4km/h 95% 0in /  0.0mm
02:14 49.3 °F /  9.6 °C 47.8 °F /  8.8 °C 30.4in /  1030.5hPa SE 3.1mph /  5km/h 5.2mph /  8.4km/h 95% 0in /  0.0mm
02:19 49.3 °F /  9.6 °C 47.8 °F /  8.8 °C 30.4in /  1030.5hPa SE 3.1mph /  5km/h 5mph /  8km/h 95% 0in /  0.0mm
02:24 49.3 °F /  9.6 °C 47.8 °F /  8.8 °C 30.4in /  1030.5hPa SE 3mph /  4.8km/h 5mph /  8km/h 95% 0in /  0.0mm
02:29 49.5 °F /  9.7 °C 48 °F /  8.9 °C 30.4in /  1030.5hPa SE 2.9mph /  4.6km/h 5mph /  8km/h 95.1% 0in /  0.0mm
02:34 49.5 °F /  9.7 °C 48 °F /  8.9 °C 30.4in /  1030.5hPa SE 2.9mph /  4.7km/h 6.4mph /  10.3km/h 95% 0in /  0.0mm
02:39 49.5 °F /  9.7 °C 48.2 °F /  9 °C 30.4in /  1030.5hPa SSE 2.9mph /  4.7km/h 7mph /  11.3km/h 95% 0in /  0.0mm
02:44 49.6 °F /  9.8 °C 48.6 °F /  9.2 °C 30.4in /  1030.5hPa SE 3.5mph /  5.7km/h 6mph /  9.7km/h 95.9% 0in /  0.0mm
02:49 49.6 °F /  9.8 °C 48.6 °F /  9.2 °C 30.4in /  1030.5hPa SSE 4mph /  6.5km/h 6mph /  9.7km/h 96% 0in /  0.0mm
02:54 49.8 °F /  9.9 °C 48.7 °F /  9.3 °C 30.4in /  1030.6hPa Sur 3.5mph /  5.6km/h 5.2mph /  8.4km/h 96% 0in /  0.0mm
02:59 50 °F /  10 °C 48.9 °F /  9.4 °C 30.4in /  1030.6hPa Sur 3.1mph /  5km/h 5.8mph /  9.3km/h 96% 0in /  0.0mm
03:04 50.2 °F /  10.1 °C 49.1 °F /  9.5 °C 30.4in /  1030.6hPa SSE 3mph /  4.8km/h 6mph /  9.7km/h 96% 0in /  0.0mm
03:09 50.2 °F /  10.1 °C 49.1 °F /  9.5 °C 30.4in /  1030.6hPa Sur 2.9mph /  4.6km/h 4.6mph /  7.4km/h 96% 0in /  0.0mm
03:14 50.4 °F /  10.2 °C 49.3 °F /  9.6 °C 30.4in /  1030.6hPa Sur 2.6mph /  4.2km/h 5mph /  8km/h 96% 0in /  0.0mm
03:19 50.4 °F /  10.2 °C 49.3 °F /  9.6 °C 30.4in /  1030.6hPa SSO 2.4mph /  3.9km/h 5mph /  8km/h 96% 0in /  0.0mm
03:24 50.4 °F /  10.2 °C 49.1 °F /  9.5 °C 30.4in /  1030.6hPa SE 2.7mph /  4.3km/h 5mph /  8km/h 95.3% 0in /  0.0mm
03:29 50 °F /  10 °C 48.7 °F /  9.3 °C 30.4in /  1030.6hPa ESE 2.9mph /  4.7km/h 5mph /  8km/h 95% 0in /  0.0mm
03:34 49.8 °F /  9.9 °C 48.4 °F /  9.1 °C 30.4in /  1030.6hPa SE 2.5mph /  4.1km/h 5mph /  8km/h 95% 0in /  0.0mm
03:39 49.8 °F /  9.9 °C 48.4 °F /  9.1 °C 30.4in /  1030.8hPa SSE 2.4mph /  3.9km/h 5mph /  8km/h 95% 0in /  0.0mm
03:44 49.6 °F /  9.8 °C 48.4 °F /  9.1 °C 30.4in /  1030.8hPa SSE 2.7mph /  4.4km/h 5mph /  8km/h 95% 0in /  0.0mm
03:49 49.6 °F /  9.8 °C 48.2 °F /  9 °C 30.4in /  1030.8hPa SSE 2.9mph /  4.7km/h 5mph /  8km/h 95% 0in /  0.0mm
03:54 49.5 °F /  9.7 °C 48 °F /  8.9 °C 30.4in /  1030.8hPa SSE 2.9mph /  4.7km/h 5mph /  8km/h 95% 0in /  0.0mm
03:59 49.5 °F /  9.7 °C 48 °F /  8.9 °C 30.4in /  1030.8hPa SSE 2.9mph /  4.7km/h 5mph /  8km/h 95% 0in /  0.0mm
04:04 49.3 °F /  9.6 °C 47.8 °F /  8.8 °C 30.4in /  1030.8hPa Sur 2.2mph /  3.5km/h 4.6mph /  7.4km/h 95% 0in /  0.0mm
04:09 49.1 °F /  9.5 °C 47.7 °F /  8.7 °C 30.4in /  1030.9hPa SE 1.8mph /  2.9km/h 5.2mph /  8.4km/h 95% 0in /  0.0mm
04:14 48.9 °F /  9.4 °C 47.7 °F /  8.7 °C 30.4in /  1030.9hPa SE 2.5mph /  4km/h 5mph /  8km/h 95% 0in /  0.0mm
04:19 48.7 °F /  9.3 °C 47.5 °F /  8.6 °C 30.4in /  1030.9hPa SSE 2.9mph /  4.6km/h 5mph /  8km/h 95% 0in /  0.0mm
04:24 48.7 °F /  9.3 °C 47.5 °F /  8.6 °C 30.4in /  1031.0hPa SE 2.6mph /  4.2km/h 5mph /  8km/h 95% 0in /  0.0mm
04:29 48.7 °F /  9.3 °C 47.5 °F /  8.6 °C 30.4in /  1031.0hPa SE 2.4mph /  3.9km/h 4mph /  6.4km/h 95% 0in /  0.0mm
04:34 48.6 °F /  9.2 °C 47.3 °F /  8.5 °C 30.4in /  1031.0hPa SE 2.2mph /  3.5km/h 5mph /  8km/h 95% 0in /  0.0mm
04:39 48.6 °F /  9.2 °C 47.1 °F /  8.4 °C 30.4in /  1031.0hPa SSE 2mph /  3.2km/h 5.2mph /  8.4km/h 95% 0in /  0.0mm
04:44 48.6 °F /  9.2 °C 47.1 °F /  8.4 °C 30.4in /  1031.0hPa SSE 2.7mph /  4.3km/h 6.4mph /  10.3km/h 95% 0in /  0.0mm
04:49 48.6 °F /  9.2 °C 47.1 °F /  8.4 °C 30.4in /  1031.0hPa Sur 3.1mph /  5km/h 7mph /  11.3km/h 95% 0in /  0.0mm
04:54 48.6 °F /  9.2 °C 47.1 °F /  8.4 °C 30.4in /  1031.0hPa SSO 3.4mph /  5.5km/h 7mph /  11.3km/h 95% 0in /  0.0mm
04:59 48.7 °F /  9.3 °C 47.3 °F /  8.5 °C 30.4in /  1031.0hPa SSO 3.6mph /  5.8km/h 5mph /  8km/h 95% 0in /  0.0mm
05:04 48.7 °F /  9.3 °C 47.7 °F /  8.7 °C 30.4in /  1031.0hPa SO 2.4mph /  3.9km/h 4.7mph /  7.6km/h 95.9% 0in /  0.0mm
05:09 49.1 °F /  9.5 °C 48 °F /  8.9 °C 30.4in /  1031.0hPa SSO 1.8mph /  2.9km/h 6.2mph /  10km/h 96% 0in /  0.0mm
05:14 49.3 °F /  9.6 °C 48 °F /  8.9 °C 30.4in /  1031.0hPa SSO 2.9mph /  4.6km/h 6mph /  9.7km/h 95.4% 0in /  0.0mm
05:19 49.3 °F /  9.6 °C 47.8 °F /  8.8 °C 30.4in /  1031.0hPa SSO 3.6mph /  5.8km/h 5.8mph /  9.3km/h 95% 0in /  0.0mm
05:24 49.3 °F /  9.6 °C 47.8 °F /  8.8 °C 30.4in /  1031.0hPa SO 3.6mph /  5.8km/h 6mph /  9.7km/h 95% 0in /  0.0mm
05:29 49.3 °F /  9.6 °C 47.8 °F /  8.8 °C 30.4in /  1030.8hPa SO 3.6mph /  5.8km/h 6mph /  9.7km/h 95% 0in /  0.0mm
05:34 49.3 °F /  9.6 °C 47.8 °F /  8.8 °C 30.4in /  1030.8hPa SO 2.5mph /  4km/h 4mph /  6.4km/h 95% 0in /  0.0mm
05:39 49.3 °F /  9.6 °C 47.8 °F /  8.8 °C 30.4in /  1031.0hPa SO 1.8mph /  2.9km/h   95% 0in /  0.0mm
05:44 49.3 °F /  9.6 °C 47.7 °F /  8.7 °C 30.4in /  1031.0hPa SO 0.7mph /  1.2km/h   94.7% 0in /  0.0mm
05:49 48.9 °F /  9.4 °C 47.3 °F /  8.5 °C 30.4in /  1031.0hPa Calm     94% 0in /  0.0mm
05:54 48.7 °F /  9.3 °C 47.3 °F /  8.5 °C 30.4in /  1031.0hPa Calm     94.6% 0in /  0.0mm
05:59 48.7 °F /  9.3 °C 47.3 °F /  8.5 °C 30.4in /  1031.0hPa Calm     95% 0in /  0.0mm
06:04 48.7 °F /  9.3 °C 47.5 °F /  8.6 °C 30.4in /  1031.0hPa Calm     95% 0in /  0.0mm
06:09 48.7 °F /  9.3 °C 47.5 °F /  8.6 °C 30.4in /  1031.0hPa Calm     95% 0in /  0.0mm
06:14 48.7 °F /  9.3 °C 47.5 °F /  8.6 °C 30.4in /  1031.0hPa Calm     95% 0.01in /  0.3mm
06:19 48.9 °F /  9.4 °C 47.7 °F /  8.7 °C 30.4in /  1031.0hPa Calm     95% 0.01in /  0.3mm
06:24 48.9 °F /  9.4 °C 47.7 °F /  8.7 °C 30.4in /  1031.0hPa Calm   4.6mph /  7.4km/h 95% 0.01in /  0.3mm
06:29 48.7 °F /  9.3 °C 47.3 °F /  8.5 °C 30.4in /  1031.0hPa Calm   5mph /  8km/h 94.3% 0.01in /  0.3mm
06:34 48.7 °F /  9.3 °C 47.1 °F /  8.4 °C 30.4in /  1031.0hPa SSO 1.5mph /  2.4km/h 5mph /  8km/h 94% 0.01in /  0.3mm
06:39 48.7 °F /  9.3 °C 47.1 °F /  8.4 °C 30.5in /  1031.2hPa SSO 2.4mph /  3.9km/h 5mph /  8km/h 94% 0.01in /  0.3mm
06:44 48.6 °F /  9.2 °C 46.9 °F /  8.3 °C 30.5in /  1031.2hPa SSO 0.9mph /  1.4km/h 2mph /  3.2km/h 94% 0.01in /  0.3mm
06:49 48.6 °F /  9.2 °C 46.9 °F /  8.3 °C 30.5in /  1031.2hPa Calm   4mph /  6.4km/h 94% 0.01in /  0.3mm
06:54 48.6 °F /  9.2 °C 46.9 °F /  8.3 °C 30.5in /  1031.2hPa SSO 0.9mph /  1.4km/h 5mph /  8km/h 94% 0.01in /  0.3mm
06:59 48.6 °F /  9.2 °C 46.9 °F /  8.3 °C 30.5in /  1031.2hPa SO 1.4mph /  2.2km/h 5mph /  8km/h 94% 0.01in /  0.3mm
07:04 48.6 °F /  9.2 °C 46.9 °F /  8.3 °C 30.5in /  1031.2hPa SO 1.8mph /  2.9km/h 4.6mph /  7.4km/h 94% 0.01in /  0.3mm
07:09 48.6 °F /  9.2 °C 46.9 °F /  8.3 °C 30.5in /  1031.3hPa SO 2mph /  3.2km/h 5mph /  8km/h 94% 0.01in /  0.3mm
07:14 48.6 °F /  9.2 °C 46.9 °F /  8.3 °C 30.5in /  1031.3hPa OSO 2.2mph /  3.6km/h 5mph /  8km/h 94% 0.01in /  0.3mm
07:19 48.6 °F /  9.2 °C 46.6 °F /  8.1 °C 30.5in /  1031.3hPa OSO 2.4mph /  3.9km/h 4mph /  6.4km/h 93.1% 0in /  0.0mm
07:24 48.6 °F /  9.2 °C 46.6 °F /  8.1 °C 30.5in /  1031.3hPa SO 2.1mph /  3.3km/h 5.8mph /  9.3km/h 93% 0in /  0.0mm
07:29 48.6 °F /  9.2 °C 46.6 °F /  8.1 °C 30.5in /  1031.3hPa SO 1.8mph /  2.9km/h 6mph /  9.7km/h 93% 0in /  0.0mm
07:34 48.6 °F /  9.2 °C 46.6 °F /  8.1 °C 30.5in /  1031.3hPa OSO 2.5mph /  4km/h 5mph /  8km/h 93% 0in /  0.0mm
07:39 48.7 °F /  9.3 °C 46.8 °F /  8.2 °C 30.5in /  1031.4hPa OSO 2.9mph /  4.7km/h 5mph /  8km/h 93% 0in /  0.0mm
07:44 48.6 °F /  9.2 °C 46.6 °F /  8.1 °C 30.5in /  1031.4hPa OSO 2.2mph /  3.6km/h 4.7mph /  7.6km/h 93% 0in /  0.0mm
07:49 48.6 °F /  9.2 °C 46.6 °F /  8.1 °C 30.5in /  1031.4hPa SO 1.8mph /  2.9km/h 5.8mph /  9.3km/h 92.6% 0in /  0.0mm
07:54 48.4 °F /  9.1 °C 46.2 °F /  7.9 °C 30.5in /  1031.4hPa SO 2.5mph /  4km/h 6mph /  9.7km/h 92% 0in /  0.0mm
07:59 48.4 °F /  9.1 °C 46.2 °F /  7.9 °C 30.5in /  1031.4hPa SO 2.9mph /  4.7km/h 6mph /  9.7km/h 92% 0in /  0.0mm
08:04 48.4 °F /  9.1 °C 46.2 °F /  7.9 °C 30.5in /  1031.4hPa SO 3.4mph /  5.4km/h 6mph /  9.7km/h 92% 0in /  0.0mm
08:09 48.2 °F /  9 °C 46 °F /  7.8 °C 30.5in /  1031.5hPa OSO 3.6mph /  5.8km/h 6mph /  9.7km/h 92% 0in /  0.0mm
08:14 48.2 °F /  9 °C 45.7 °F /  7.6 °C 30.5in /  1031.5hPa SO 3.3mph /  5.3km/h 6mph /  9.7km/h 91.2% 0in /  0.0mm
08:19 48 °F /  8.9 °C 45.5 °F /  7.5 °C 30.5in /  1031.5hPa SO 3.1mph /  5km/h 5mph /  8km/h 91% 0in /  0.0mm
08:24 48 °F /  8.9 °C 45.5 °F /  7.5 °C 30.5in /  1031.7hPa OSO 2.4mph /  3.9km/h 4.7mph /  7.6km/h 91% 0in /  0.0mm
08:29 48 °F /  8.9 °C 45.5 °F /  7.5 °C 30.5in /  1031.7hPa OSO 2mph /  3.2km/h 5mph /  8km/h 91% 0in /  0.0mm
08:34 47.8 °F /  8.8 °C 45.1 °F /  7.3 °C 30.5in /  1031.7hPa OSO 2.2mph /  3.6km/h 5mph /  8km/h 90.4% 0in /  0.0mm
08:39 47.8 °F /  8.8 °C 45.1 °F /  7.3 °C 30.5in /  1031.8hPa SO 2.4mph /  3.9km/h 5.8mph /  9.3km/h 90.4% 0in /  0.0mm
08:44 47.8 °F /  8.8 °C 45.3 °F /  7.4 °C 30.5in /  1031.8hPa SO 2.7mph /  4.3km/h 6mph /  9.7km/h 91% 0in /  0.0mm
08:49 47.8 °F /  8.8 °C 45.3 °F /  7.4 °C 30.5in /  1031.8hPa SO 2.9mph /  4.7km/h 5mph /  8km/h 91% 0in /  0.0mm
08:54 48 °F /  8.9 °C 45.5 °F /  7.5 °C 30.5in /  1031.8hPa SSO 2.6mph /  4.2km/h 5mph /  8km/h 91% 0in /  0.0mm
08:59 48.2 °F /  9 °C 45.7 °F /  7.6 °C 30.5in /  1031.7hPa SSO 2.4mph /  3.9km/h 5mph /  8km/h 91% 0in /  0.0mm
09:04 48.4 °F /  9.1 °C 45.9 °F /  7.7 °C 30.5in /  1031.7hPa SO 2.9mph /  4.6km/h 5.9mph /  9.5km/h 91% 0in /  0.0mm
09:09 48.4 °F /  9.1 °C 45.9 °F /  7.7 °C 30.5in /  1031.8hPa SSO 3.1mph /  5km/h 6mph /  9.7km/h 91% 0in /  0.0mm
09:14 48.4 °F /  9.1 °C 45.9 °F /  7.7 °C 30.5in /  1031.8hPa SSO 2.7mph /  4.3km/h 4mph /  6.4km/h 91% 0in /  0.0mm
09:19 48.6 °F /  9.2 °C 46 °F /  7.8 °C 30.5in /  1031.8hPa SSO 2.4mph /  3.9km/h 3mph /  4.8km/h 91% 0in /  0.0mm
09:24 48.6 °F /  9.2 °C 46 °F /  7.8 °C 30.5in /  1032.0hPa SSO 0.9mph /  1.5km/h 4mph /  6.4km/h 91% 0in /  0.0mm
09:29 48.6 °F /  9.2 °C 46 °F /  7.8 °C 30.5in /  1032.0hPa Calm   5mph /  8km/h 91% 0in /  0.0mm
09:34 48.6 °F /  9.2 °C 46 °F /  7.8 °C 30.5in /  1032.0hPa OSO 1.1mph /  1.7km/h 5mph /  8km/h 91% 0in /  0.0mm
09:39 48.6 °F /  9.2 °C 46 °F /  7.8 °C 30.5in /  1032.0hPa OSO 1.8mph /  2.9km/h 4mph /  6.4km/h 91% 0in /  0.0mm
09:44 48.6 °F /  9.2 °C 46 °F /  7.8 °C 30.5in /  1032.0hPa OSO 1.8mph /  2.9km/h 3mph /  4.8km/h 91% 0in /  0.0mm
09:49 48.7 °F /  9.3 °C 46.2 °F /  7.9 °C 30.5in /  1032.0hPa OSO 1.8mph /  2.9km/h 3mph /  4.8km/h 91% 0in /  0.0mm
09:54 48.7 °F /  9.3 °C 46 °F /  7.8 °C 30.5in /  1032.2hPa SSE 1.8mph /  2.9km/h 4.6mph /  7.4km/h 90.5% 0in /  0.0mm
09:59 48.7 °F /  9.3 °C 45.9 °F /  7.7 °C 30.5in /  1032.2hPa Este 1.8mph /  2.9km/h 5mph /  8km/h 90% 0in /  0.0mm
10:04 48.7 °F /  9.3 °C 46 °F /  7.8 °C 30.5in /  1032.2hPa Este 1.6mph /  2.5km/h 2.9mph /  4.7km/h 90.2% 0in /  0.0mm
10:09 49.1 °F /  9.5 °C 46.6 °F /  8.1 °C 30.5in /  1032.4hPa Este 1.4mph /  2.2km/h 3mph /  4.8km/h 91% 0in /  0.0mm
10:14 49.6 °F /  9.8 °C 46.9 °F /  8.3 °C 30.5in /  1032.4hPa Este 0.6mph /  0.9km/h 3.5mph /  5.6km/h 90.6% 0in /  0.0mm
10:19 49.8 °F /  9.9 °C 46.9 °F /  8.3 °C 30.5in /  1032.4hPa Calm   4.6mph /  7.4km/h 89.9% 0in /  0.0mm
10:24 50 °F /  10 °C 46.9 °F /  8.3 °C 30.5in /  1032.7hPa OSO 1.2mph /  2km/h 5mph /  8km/h 89% 0in /  0.0mm
10:29 50.4 °F /  10.2 °C 47.1 °F /  8.4 °C 30.5in /  1032.7hPa SO 2mph /  3.2km/h 5.8mph /  9.3km/h 89% 0in /  0.0mm
10:34 50.5 °F /  10.3 °C 47.1 °F /  8.4 °C 30.5in /  1032.7hPa SO 2.7mph /  4.3km/h 6mph /  9.7km/h 88.2% 0in /  0.0mm
10:39 50.7 °F /  10.4 °C 47.1 °F /  8.4 °C 30.5in /  1032.7hPa SO 3.1mph /  5km/h 5.9mph /  9.5km/h 87.5% 0in /  0.0mm
10:44 51.1 °F /  10.6 °C 46.9 °F /  8.3 °C 30.5in /  1032.6hPa SSO 3.1mph /  5km/h 6mph /  9.7km/h 85.7% 0in /  0.0mm
10:49 51.3 °F /  10.7 °C 46.8 °F /  8.2 °C 30.5in /  1032.6hPa SSO 3.1mph /  5km/h 6.9mph /  11.1km/h 84.3% 0in /  0.0mm
10:54 51.6 °F /  10.9 °C 46.8 °F /  8.2 °C 30.5in /  1032.8hPa SSO 3.4mph /  5.5km/h 8.1mph /  13km/h 83.2% 0in /  0.0mm
10:59 52 °F /  11.1 °C 46.8 °F /  8.2 °C 30.5in /  1032.8hPa SSO 3.6mph /  5.8km/h 8.1mph /  13km/h 81.9% 0in /  0.0mm
11:04 52.3 °F /  11.3 °C 46.6 °F /  8.1 °C 30.5in /  1032.8hPa SSO 4.7mph /  7.5km/h 8.1mph /  13km/h 80.9% 0in /  0.0mm
11:09 52.5 °F /  11.4 °C 46.6 °F /  8.1 °C 30.5in /  1032.8hPa SSO 5.2mph /  8.4km/h 8mph /  12.9km/h 80.1% 0in /  0.0mm
11:14 52.9 °F /  11.6 °C 46.8 °F /  8.2 °C 30.5in /  1032.7hPa Sur 4.7mph /  7.5km/h 7.4mph /  11.9km/h 79.9% 0in /  0.0mm
11:19 52.9 °F /  11.6 °C 46.6 °F /  8.1 °C 30.5in /  1032.7hPa Sur 4.3mph /  6.9km/h 8.5mph /  13.7km/h 79% 0in /  0.0mm
11:24 53.1 °F /  11.7 °C 46.9 °F /  8.3 °C 30.5in /  1032.7hPa SSO 5mph /  8km/h 9mph /  14.5km/h 79.9% 0in /  0.0mm
11:29 53.1 °F /  11.7 °C 46.8 °F /  8.2 °C 30.5in /  1032.7hPa SSO 5.4mph /  8.7km/h 8mph /  12.9km/h 79.2% 0in /  0.0mm
11:34 53.1 °F /  11.7 °C 46.9 °F /  8.3 °C 30.5in /  1032.7hPa SSO 4.7mph /  7.6km/h 7mph /  11.3km/h 79.4% 0in /  0.0mm
11:39 53.4 °F /  11.9 °C 47.1 °F /  8.4 °C 30.5in /  1032.7hPa SSO 4.3mph /  6.9km/h 7.6mph /  12.2km/h 79.1% 0in /  0.0mm
11:44 53.6 °F /  12 °C 46.9 °F /  8.3 °C 30.5in /  1032.4hPa SSO 4.1mph /  6.6km/h 8.1mph /  13km/h 78% 0in /  0.0mm
11:49 53.8 °F /  12.1 °C 46.9 °F /  8.3 °C 30.5in /  1032.4hPa SSO 4mph /  6.5km/h 8.5mph /  13.7km/h 77.7% 0in /  0.0mm
11:54 53.6 °F /  12 °C 46.9 °F /  8.3 °C 30.5in /  1032.4hPa SSO 4.7mph /  7.6km/h 9mph /  14.5km/h 78% 0in /  0.0mm
11:59 53.8 °F /  12.1 °C 47.1 °F /  8.4 °C 30.5in /  1031.9hPa SO 5.2mph /  8.4km/h 8mph /  12.9km/h 78% 0in /  0.0mm
12:04 54.1 °F /  12.3 °C 47.3 °F /  8.5 °C 30.5in /  1031.9hPa SSO 4.6mph /  7.4km/h 7mph /  11.3km/h 77.4% 0in /  0.0mm
12:09 54.3 °F /  12.4 °C 47.1 °F /  8.4 °C 30.5in /  1031.9hPa SSO 4.3mph /  6.9km/h 7mph /  11.3km/h 76.5% 0in /  0.0mm
12:14 54.5 °F /  12.5 °C 47.1 °F /  8.4 °C 30.5in /  1031.8hPa SO 3.5mph /  5.7km/h 6mph /  9.7km/h 76% 0in /  0.0mm
12:19 54.9 °F /  12.7 °C 47.3 °F /  8.5 °C 30.5in /  1031.8hPa SO 3.1mph /  5km/h 5.9mph /  9.5km/h 75.6% 0in /  0.0mm
12:24 55 °F /  12.8 °C 47.1 °F /  8.4 °C 30.5in /  1031.8hPa Sur 3mph /  4.8km/h 7.6mph /  12.2km/h 74.4% 0in /  0.0mm
12:29 55 °F /  12.8 °C 46.9 °F /  8.3 °C 30.5in /  1031.7hPa OSO 2.9mph /  4.7km/h 8.1mph /  13km/h 74% 0in /  0.0mm
12:34 55 °F /  12.8 °C 47.1 °F /  8.4 °C 30.5in /  1031.7hPa SSO 4mph /  6.4km/h 8mph /  12.9km/h 74.5% 0in /  0.0mm
12:39 55.2 °F /  12.9 °C 47.1 °F /  8.4 °C 30.5in /  1031.7hPa SO 4.7mph /  7.6km/h 6.2mph /  10km/h 74.4% 0in /  0.0mm
12:44 55.4 °F /  13 °C 47.3 °F /  8.5 °C 30.5in /  1031.3hPa SO 3.7mph /  6km/h 6mph /  9.7km/h 74% 0in /  0.0mm
12:49 55.9 °F /  13.3 °C 47.7 °F /  8.7 °C 30.5in /  1031.3hPa SSO 3.1mph /  5km/h 5mph /  8km/h 73.4% 0in /  0.0mm
12:54 56.5 °F /  13.6 °C 47.5 °F /  8.6 °C 30.5in /  1031.3hPa SSO 2.7mph /  4.3km/h 6.9mph /  11.1km/h 71.7% 0in /  0.0mm
12:59 56.7 °F /  13.7 °C 47.3 °F /  8.5 °C 30.4in /  1031.0hPa Sur 2.4mph /  3.9km/h 8.1mph /  13km/h 71% 0in /  0.0mm
13:04 56.5 °F /  13.6 °C 47.1 °F /  8.4 °C 30.4in /  1031.0hPa Sur 3.9mph /  6.3km/h 8mph /  12.9km/h 71% 0in /  0.0mm
13:09 56.7 °F /  13.7 °C 47.3 °F /  8.5 °C 30.4in /  1031.0hPa SSO 4.7mph /  7.6km/h 7mph /  11.3km/h 71% 0in /  0.0mm
13:14 56.7 °F /  13.7 °C 47.3 °F /  8.5 °C 30.4in /  1030.7hPa OSO 4mph /  6.5km/h 7mph /  11.3km/h 70.8% 0in /  0.0mm
13:19 56.8 °F /  13.8 °C 47.5 °F /  8.6 °C 30.4in /  1030.7hPa Sur 3.6mph /  5.8km/h 6mph /  9.7km/h 71% 0in /  0.0mm
13:24 57 °F /  13.9 °C 47.5 °F /  8.6 °C 30.4in /  1030.7hPa SE 3.2mph /  5.1km/h 5.9mph /  9.5km/h 70.2% 0in /  0.0mm
13:29 57.4 °F /  14.1 °C 47.7 °F /  8.7 °C 30.4in /  1030.5hPa Sur 2.9mph /  4.7km/h 6.9mph /  11.1km/h 70% 0in /  0.0mm
13:34 57.4 °F /  14.1 °C 47.7 °F /  8.7 °C 30.4in /  1030.5hPa Sur 2.9mph /  4.7km/h 7mph /  11.3km/h 70% 0in /  0.0mm
13:39 57.6 °F /  14.2 °C 47.7 °F /  8.7 °C 30.4in /  1030.5hPa SO 2.9mph /  4.6km/h 7mph /  11.3km/h 69.3% 0in /  0.0mm
13:44 57.7 °F /  14.3 °C 47.7 °F /  8.7 °C 30.4in /  1030.0hPa ENE 2.4mph /  3.8km/h 5mph /  8km/h 69% 0in /  0.0mm
13:49 58.1 °F /  14.5 °C 47.7 °F /  8.7 °C 30.4in /  1030.0hPa SE 2mph /  3.2km/h 5mph /  8km/h 68.5% 0in /  0.0mm
13:54 58.5 °F /  14.7 °C 47.8 °F /  8.8 °C 30.4in /  1030.0hPa SE 1.9mph /  3km/h 5mph /  8km/h 68% 0in /  0.0mm
13:59 58.6 °F /  14.8 °C 47.8 °F /  8.8 °C 30.4in /  1029.8hPa Sur 1.8mph /  2.9km/h 5mph /  8km/h 67% 0in /  0.0mm
14:04 58.8 °F /  14.9 °C 47.8 °F /  8.8 °C 30.4in /  1029.8hPa Oeste 2.2mph /  3.5km/h 5mph /  8km/h 67% 0in /  0.0mm
14:09 58.8 °F /  14.9 °C 47.8 °F /  8.8 °C 30.4in /  1029.8hPa NO 2.4mph /  3.9km/h 5mph /  8km/h 67% 0in /  0.0mm
14:14 59 °F /  15 °C 47.8 °F /  8.8 °C 30.4in /  1029.8hPa SSE 2.4mph /  3.9km/h 6.2mph /  10km/h 66.5% 0in /  0.0mm
14:19 59.4 °F /  15.2 °C 47.8 °F /  8.8 °C 30.4in /  1029.8hPa ESE 2.4mph /  3.9km/h 6mph /  9.7km/h 65.7% 0in /  0.0mm
14:24 59.5 °F /  15.3 °C 47.8 °F /  8.8 °C 30.4in /  1029.8hPa Este 2.7mph /  4.3km/h 5mph /  8km/h 65% 0in /  0.0mm
14:29 59.5 °F /  15.3 °C 47.5 °F /  8.6 °C 30.4in /  1029.6hPa SE 2.9mph /  4.7km/h 4.6mph /  7.4km/h 64.3% 0in /  0.0mm
14:34 59.7 °F /  15.4 °C 47.5 °F /  8.6 °C 30.4in /  1029.6hPa SE 2.5mph /  4.1km/h 5mph /  8km/h 64% 0in /  0.0mm
14:39 59.7 °F /  15.4 °C 47.5 °F /  8.6 °C 30.4in /  1029.6hPa SSE 2.4mph /  3.9km/h 5mph /  8km/h 63.9% 0in /  0.0mm
14:44 59.7 °F /  15.4 °C 47.3 °F /  8.5 °C 30.4in /  1029.4hPa SSO 2.2mph /  3.5km/h 5.9mph /  9.5km/h 63.3% 0in /  0.0mm
14:49 59.7 °F /  15.4 °C 47.5 °F /  8.6 °C 30.4in /  1029.4hPa SSE 2mph /  3.2km/h 6mph /  9.7km/h 63.9% 0in /  0.0mm
14:54 59.5 °F /  15.3 °C 47.5 °F /  8.6 °C 30.4in /  1029.4hPa SE 2.7mph /  4.3km/h 6.2mph /  10km/h 63.9% 0in /  0.0mm
14:59 59.5 °F /  15.3 °C 47.3 °F /  8.5 °C 30.4in /  1029.2hPa SSO 3.1mph /  5km/h 6mph /  9.7km/h 64% 0in /  0.0mm
15:04 59.5 °F /  15.3 °C 47.3 °F /  8.5 °C 30.4in /  1029.2hPa NE 2.3mph /  3.7km/h 6.4mph /  10.3km/h 64% 0in /  0.0mm
15:09 59.5 °F /  15.3 °C 47.3 °F /  8.5 °C 30.4in /  1029.3hPa ESE 1.8mph /  2.9km/h 7mph /  11.3km/h 64.1% 0in /  0.0mm
15:14 59.5 °F /  15.3 °C 47.5 °F /  8.6 °C 30.4in /  1029.3hPa SE 1.9mph /  3.1km/h 5mph /  8km/h 64.5% 0in /  0.0mm
15:19 59.5 °F /  15.3 °C 47.8 °F /  8.8 °C 30.4in /  1029.3hPa Sur 2mph /  3.2km/h 3mph /  4.8km/h 65% 0in /  0.0mm
15:24 59.5 °F /  15.3 °C 47.7 °F /  8.7 °C 30.4in /  1029.3hPa OSO 1.9mph /  3km/h 3.6mph /  5.8km/h 64.4% 0in /  0.0mm
15:29 59.7 °F /  15.4 °C 47.8 °F /  8.8 °C 30.4in /  1029.1hPa SO 1.8mph /  2.9km/h 4mph /  6.4km/h 64.8% 0in /  0.0mm
15:34 59.9 °F /  15.5 °C 47.7 °F /  8.7 °C 30.4in /  1029.1hPa SSE 0.7mph /  1.1km/h 3.5mph /  5.6km/h 64% 0in /  0.0mm
15:39 59.9 °F /  15.5 °C 47.7 °F /  8.7 °C 30.4in /  1029.1hPa Calm   3.5mph /  5.6km/h 64.1% 0in /  0.0mm
15:44 60.1 °F /  15.6 °C 48 °F /  8.9 °C 30.4in /  1028.8hPa NE 0.9mph /  1.4km/h 3.6mph /  5.8km/h 64.3% 0in /  0.0mm
15:49 60.1 °F /  15.6 °C 47.8 °F /  8.8 °C 30.4in /  1028.8hPa NE 1.4mph /  2.2km/h 4mph /  6.4km/h 64% 0in /  0.0mm
15:54 60.1 °F /  15.6 °C 47.8 °F /  8.8 °C 30.4in /  1028.8hPa ENE 1.6mph /  2.6km/h 3mph /  4.8km/h 64% 0in /  0.0mm
15:59 60.3 °F /  15.7 °C 48 °F /  8.9 °C 30.4in /  1028.7hPa ENE 1.8mph /  2.9km/h 4.3mph /  6.9km/h 64% 0in /  0.0mm
16:04 60.4 °F /  15.8 °C 48 °F /  8.9 °C 30.4in /  1028.7hPa ESE 1.6mph /  2.5km/h 5mph /  8km/h 63.8% 0in /  0.0mm
16:09 60.4 °F /  15.8 °C 48.2 °F /  9 °C 30.4in /  1028.7hPa ENE 1.4mph /  2.2km/h 3.6mph /  5.8km/h 63.8% 0in /  0.0mm
16:14 60.6 °F /  15.9 °C 48.4 °F /  9.1 °C 30.4in /  1028.5hPa NE 1.7mph /  2.8km/h 5.4mph /  8.7km/h 63.9% 0in /  0.0mm
16:19 60.4 °F /  15.8 °C 48.2 °F /  9 °C 30.4in /  1028.5hPa NE 2mph /  3.2km/h 7.4mph /  11.9km/h 64% 0in /  0.0mm
16:24 60.1 °F /  15.6 °C 48.2 °F /  9 °C 30.4in /  1028.6hPa NE 3.2mph /  5.2km/h 7.6mph /  12.2km/h 64.6% 0in /  0.0mm
16:29 59.9 °F /  15.5 °C 48 °F /  8.9 °C 30.4in /  1028.6hPa NE 4mph /  6.5km/h 8.1mph /  13km/h 65% 0in /  0.0mm
16:34 59.9 °F /  15.5 °C 48 °F /  8.9 °C 30.4in /  1028.6hPa NE 3.8mph /  6.1km/h 6.2mph /  10km/h 65% 0in /  0.0mm
16:39 59.7 °F /  15.4 °C 48 °F /  8.9 °C 30.4in /  1028.6hPa NE 3.6mph /  5.8km/h 6mph /  9.7km/h 65.2% 0in /  0.0mm
16:44 59.7 °F /  15.4 °C 48.2 °F /  9 °C 30.4in /  1028.6hPa NE 3.6mph /  5.8km/h 6.9mph /  11.1km/h 65.9% 0in /  0.0mm
16:49 59.7 °F /  15.4 °C 48.4 °F /  9.1 °C 30.4in /  1028.6hPa NE 3.6mph /  5.8km/h 7mph /  11.3km/h 66% 0in /  0.0mm
16:54 59.5 °F /  15.3 °C 48.2 °F /  9 °C 30.4in /  1028.6hPa NE 3.9mph /  6.2km/h 8.1mph /  13km/h 66% 0in /  0.0mm
16:59 59.5 °F /  15.3 °C 48.2 °F /  9 °C 30.4in /  1028.5hPa NE 4mph /  6.5km/h 8mph /  12.9km/h 66% 0in /  0.0mm
17:04 59.4 °F /  15.2 °C 48.2 °F /  9 °C 30.4in /  1028.5hPa NNE 4.2mph /  6.8km/h 6.2mph /  10km/h 66.5% 0in /  0.0mm
17:09 59.4 °F /  15.2 °C 48.4 °F /  9.1 °C 30.4in /  1028.5hPa NNE 4.3mph /  6.9km/h 6mph /  9.7km/h 67% 0in /  0.0mm
17:14 59.4 °F /  15.2 °C 48.4 °F /  9.1 °C 30.4in /  1028.5hPa NNE 3.9mph /  6.2km/h 5.2mph /  8.4km/h 67% 0in /  0.0mm
17:19 59.4 °F /  15.2 °C 48.4 °F /  9.1 °C 30.4in /  1028.5hPa NNE 3.6mph /  5.8km/h 5.4mph /  8.7km/h 67% 0in /  0.0mm
17:24 59.4 °F /  15.2 °C 48.4 °F /  9.1 °C 30.4in /  1028.7hPa NNE 3.2mph /  5.1km/h 6mph /  9.7km/h 67.3% 0in /  0.0mm
17:29 59.2 °F /  15.1 °C 48.6 °F /  9.2 °C 30.4in /  1028.7hPa NE 2.9mph /  4.7km/h 6mph /  9.7km/h 68% 0in /  0.0mm
17:34 59 °F /  15 °C 48.4 °F /  9.1 °C 30.4in /  1028.7hPa NE 3mph /  4.8km/h 5.2mph /  8.4km/h 68.2% 0in /  0.0mm
17:39 58.6 °F /  14.8 °C 48.6 °F /  9.2 °C 30.4in /  1028.7hPa NE 3.1mph /  5km/h 5.8mph /  9.3km/h 69% 0in /  0.0mm
17:44 58.5 °F /  14.7 °C 48.6 °F /  9.2 °C 30.4in /  1028.6hPa Este 3.4mph /  5.5km/h 6mph /  9.7km/h 69.4% 0in /  0.0mm
17:49 58.3 °F /  14.6 °C 48.6 °F /  9.2 °C 30.4in /  1028.6hPa ENE 3.6mph /  5.8km/h 5.9mph /  9.5km/h 70% 0in /  0.0mm
17:54 57.9 °F /  14.4 °C 48.6 °F /  9.2 °C 30.4in /  1028.9hPa Este 3.9mph /  6.2km/h 6mph /  9.7km/h 70.8% 0in /  0.0mm
17:59 57.7 °F /  14.3 °C 48.6 °F /  9.2 °C 30.4in /  1028.9hPa ENE 4mph /  6.5km/h 6mph /  9.7km/h 71% 0in /  0.0mm
18:04 57.7 °F /  14.3 °C 48.6 °F /  9.2 °C 30.4in /  1028.9hPa Este 3mph /  4.8km/h 5.8mph /  9.3km/h 71.3% 0in /  0.0mm
18:09 57.6 °F /  14.2 °C 48.6 °F /  9.2 °C 30.4in /  1028.9hPa ESE 2.4mph /  3.9km/h 6mph /  9.7km/h 72% 0in /  0.0mm
18:14 57.6 °F /  14.2 °C 48.6 °F /  9.2 °C 30.4in /  1028.8hPa ESE 3.2mph /  5.2km/h 6mph /  9.7km/h 72% 0in /  0.0mm
18:19 57.4 °F /  14.1 °C 48.6 °F /  9.2 °C 30.4in /  1028.8hPa ESE 4mph /  6.5km/h 6mph /  9.7km/h 72.3% 0in /  0.0mm
18:24 57 °F /  13.9 °C 48.4 °F /  9.1 °C 30.4in /  1028.8hPa Este 3.5mph /  5.6km/h 5mph /  8km/h 73% 0in /  0.0mm
18:29 56.8 °F /  13.8 °C 48.4 °F /  9.1 °C 30.4in /  1028.8hPa ENE 3.1mph /  5km/h 5mph /  8km/h 73.6% 0in /  0.0mm
18:34 56.7 °F /  13.7 °C 48.6 °F /  9.2 °C 30.4in /  1028.8hPa Este 2.7mph /  4.3km/h 5mph /  8km/h 74% 0in /  0.0mm
18:39 56.5 °F /  13.6 °C 48.4 °F /  9.1 °C 30.4in /  1028.9hPa Este 2.4mph /  3.9km/h 5mph /  8km/h 74.2% 0in /  0.0mm
18:44 56.5 °F /  13.6 °C 48.6 °F /  9.2 °C 30.4in /  1028.9hPa Este 2.2mph /  3.5km/h 3.6mph /  5.8km/h 75% 0in /  0.0mm
18:49 56.1 °F /  13.4 °C 48.4 °F /  9.1 °C 30.4in /  1028.9hPa Este 2mph /  3.2km/h 4.6mph /  7.4km/h 75% 0in /  0.0mm
18:54 55.9 °F /  13.3 °C 48.6 °F /  9.2 °C 30.4in /  1029.1hPa Este 2.2mph /  3.6km/h 5mph /  8km/h 75.9% 0in /  0.0mm
18:59 55.9 °F /  13.3 °C 48.4 °F /  9.1 °C 30.4in /  1029.1hPa ESE 2.4mph /  3.9km/h 5.9mph /  9.5km/h 76% 0in /  0.0mm
19:04 55.8 °F /  13.2 °C 48.6 °F /  9.2 °C 30.4in /  1029.1hPa ESE 3.2mph /  5.1km/h 6.9mph /  11.1km/h 76.7% 0in /  0.0mm
19:09 55.8 °F /  13.2 °C 48.7 °F /  9.3 °C 30.4in /  1029.1hPa ESE 3.6mph /  5.8km/h 7mph /  11.3km/h 77% 0in /  0.0mm
19:14 55.8 °F /  13.2 °C 48.7 °F /  9.3 °C 30.4in /  1029.0hPa ESE 4mph /  6.5km/h 7mph /  11.3km/h 77% 0in /  0.0mm
19:19 55.6 °F /  13.1 °C 48.6 °F /  9.2 °C 30.4in /  1029.0hPa ESE 4.3mph /  6.9km/h 6mph /  9.7km/h 77% 0in /  0.0mm
19:24 55.2 °F /  12.9 °C 48.2 °F /  9 °C 30.4in /  1029.1hPa Este 3.9mph /  6.3km/h 6.2mph /  10km/h 77% 0in /  0.0mm
19:29 55 °F /  12.8 °C 48.2 °F /  9 °C 30.4in /  1029.1hPa NE 3.6mph /  5.8km/h 6mph /  9.7km/h 77.7% 0in /  0.0mm
19:34 54.9 °F /  12.7 °C 48 °F /  8.9 °C 30.4in /  1029.1hPa NE 2.9mph /  4.6km/h 5mph /  8km/h 78% 0in /  0.0mm
19:39 54.5 °F /  12.5 °C 48 °F /  8.9 °C 30.4in /  1029.3hPa NE 2.4mph /  3.9km/h 4.6mph /  7.4km/h 78.6% 0in /  0.0mm
19:44 54.3 °F /  12.4 °C 47.8 °F /  8.8 °C 30.4in /  1029.3hPa NE 2.4mph /  3.9km/h 5mph /  8km/h 79% 0in /  0.0mm
19:49 54.1 °F /  12.3 °C 47.8 °F /  8.8 °C 30.4in /  1029.3hPa NNE 2.4mph /  3.9km/h 5.8mph /  9.3km/h 79.3% 0in /  0.0mm
19:54 54 °F /  12.2 °C 47.8 °F /  8.8 °C 30.4in /  1029.4hPa NNE 2.7mph /  4.3km/h 6mph /  9.7km/h 80.2% 0in /  0.0mm
19:59 53.4 °F /  11.9 °C 47.8 °F /  8.8 °C 30.4in /  1029.4hPa NNO 2.9mph /  4.7km/h 5.2mph /  8.4km/h 81.3% 0in /  0.0mm
20:04 53.2 °F /  11.8 °C 47.8 °F /  8.8 °C 30.4in /  1029.4hPa NNE 2.5mph /  4.1km/h 5mph /  8km/h 82% 0in /  0.0mm
20:09 53.1 °F /  11.7 °C 48 °F /  8.9 °C 30.4in /  1029.4hPa NNE 2.4mph /  3.9km/h 5mph /  8km/h 83% 0in /  0.0mm
20:14 53.1 °F /  11.7 °C 48 °F /  8.9 °C 30.4in /  1029.4hPa NNE 2.4mph /  3.9km/h 4.3mph /  6.9km/h 83% 0in /  0.0mm
20:19 53.1 °F /  11.7 °C 48.2 °F /  9 °C 30.4in /  1029.4hPa NNO 2.4mph /  3.9km/h 5mph /  8km/h 83.6% 0in /  0.0mm
20:24 53.1 °F /  11.7 °C 48.2 °F /  9 °C 30.4in /  1029.5hPa NNO 2.2mph /  3.5km/h 6.2mph /  10km/h 83.6% 0in /  0.0mm
20:29 52.9 °F /  11.6 °C 48.2 °F /  9 °C 30.4in /  1029.5hPa North 2mph /  3.2km/h 6mph /  9.7km/h 84% 0in /  0.0mm
20:34 52.9 °F /  11.6 °C 48.2 °F /  9 °C 30.4in /  1029.5hPa North 2.7mph /  4.3km/h 6mph /  9.7km/h 84% 0in /  0.0mm
20:39 52.5 °F /  11.4 °C 47.8 °F /  8.8 °C 30.4in /  1029.6hPa North 3.1mph /  5km/h 5mph /  8km/h 84% 0in /  0.0mm
20:44 52.5 °F /  11.4 °C 47.8 °F /  8.8 °C 30.4in /  1029.6hPa NNE 2.4mph /  3.9km/h 5mph /  8km/h 84.4% 0in /  0.0mm
20:49 52.3 °F /  11.3 °C 48 °F /  8.9 °C 30.4in /  1029.6hPa NNE 2mph /  3.2km/h 5.2mph /  8.4km/h 85% 0in /  0.0mm
20:54 52.2 °F /  11.2 °C 47.8 °F /  8.8 °C 30.4in /  1029.7hPa NNE 2.5mph /  4.1km/h 5.2mph /  8.4km/h 85% 0in /  0.0mm
20:59 52.2 °F /  11.2 °C 47.8 °F /  8.8 °C 30.4in /  1029.7hPa NNE 2.9mph /  4.7km/h 5.9mph /  9.5km/h 85% 0in /  0.0mm
21:04 52 °F /  11.1 °C 47.7 °F /  8.7 °C 30.4in /  1029.7hPa NNE 3mph /  4.9km/h 6mph /  9.7km/h 85% 0in /  0.0mm
21:09 52 °F /  11.1 °C 47.7 °F /  8.7 °C 30.4in /  1029.7hPa NNE 3.1mph /  5km/h 5mph /  8km/h 85% 0in /  0.0mm
21:14 52 °F /  11.1 °C 47.5 °F /  8.6 °C 30.4in /  1029.5hPa NNE 2.3mph /  3.7km/h 3mph /  4.8km/h 85% 0in /  0.0mm
21:19 51.8 °F /  11 °C 47.3 °F /  8.5 °C 30.4in /  1029.5hPa North 1.8mph /  2.9km/h 3.5mph /  5.6km/h 85% 0in /  0.0mm
21:24 51.4 °F /  10.8 °C 47.1 °F /  8.4 °C 30.4in /  1029.6hPa North 1.8mph /  2.9km/h 3mph /  4.8km/h 85% 0in /  0.0mm
21:29 51.4 °F /  10.8 °C 47.1 °F /  8.4 °C 30.4in /  1029.6hPa North 1.8mph /  2.9km/h 2.9mph /  4.7km/h 85.5% 0in /  0.0mm
21:34 51.3 °F /  10.7 °C 47.1 °F /  8.4 °C 30.4in /  1029.6hPa North 1.6mph /  2.5km/h 3mph /  4.8km/h 86% 0in /  0.0mm
21:39 51.1 °F /  10.6 °C 46.9 °F /  8.3 °C 30.4in /  1029.6hPa North 1.4mph /  2.2km/h 3mph /  4.8km/h 86% 0in /  0.0mm
21:44 50.9 °F /  10.5 °C 46.9 °F /  8.3 °C 30.4in /  1029.4hPa North 1.4mph /  2.2km/h 3mph /  4.8km/h 86% 0in /  0.0mm
21:49 50.7 °F /  10.4 °C 46.8 °F /  8.2 °C 30.4in /  1029.4hPa North 1.4mph /  2.2km/h   86% 0in /  0.0mm
21:54 50.7 °F /  10.4 °C 46.9 °F /  8.3 °C 30.4in /  1029.7hPa North 0.6mph /  0.9km/h   86.7% 0in /  0.0mm
21:59 50.7 °F /  10.4 °C 46.9 °F /  8.3 °C 30.4in /  1029.7hPa Calm     87% 0in /  0.0mm
22:04 50.7 °F /  10.4 °C 46.9 °F /  8.3 °C 30.4in /  1029.7hPa Calm     87% 0in /  0.0mm
22:09 50.7 °F /  10.4 °C 46.9 °F /  8.3 °C 30.4in /  1029.9hPa Calm     87% 0in /  0.0mm
22:14 50.7 °F /  10.4 °C 47.1 °F /  8.4 °C 30.4in /  1029.9hPa Calm   4.6mph /  7.4km/h 87% 0in /  0.0mm
22:19 50.7 °F /  10.4 °C 46.8 °F /  8.2 °C 30.4in /  1029.9hPa Calm   5mph /  8km/h 86.3% 0in /  0.0mm
22:24 50.7 °F /  10.4 °C 46.8 °F /  8.2 °C 30.4in /  1029.9hPa Este 1.4mph /  2.3km/h 5mph /  8km/h 86% 0in /  0.0mm
22:29 50.5 °F /  10.3 °C 46.6 °F /  8.1 °C 30.4in /  1029.9hPa ESE 2.4mph /  3.9km/h 5mph /  8km/h 86% 0in /  0.0mm
22:34 50.5 °F /  10.3 °C 46.6 °F /  8.1 °C 30.4in /  1029.9hPa ESE 2.2mph /  3.5km/h 5mph /  8km/h 86% 0in /  0.0mm
22:39 50.5 °F /  10.3 °C 46.8 °F /  8.2 °C 30.4in /  1030.1hPa ESE 2mph /  3.2km/h 3mph /  4.8km/h 86.8% 0in /  0.0mm
22:44 50.5 °F /  10.3 °C 46.8 °F /  8.2 °C 30.4in /  1030.1hPa ESE 0.7mph /  1.2km/h 2mph /  3.2km/h 87% 0in /  0.0mm
22:49 50.7 °F /  10.4 °C 46.9 °F /  8.3 °C 30.4in /  1030.1hPa Calm     87% 0in /  0.0mm
22:54 50.7 °F /  10.4 °C 46.9 °F /  8.3 °C 30.4in /  1030.2hPa Calm     87% 0in /  0.0mm
22:59 50.7 °F /  10.4 °C 46.9 °F /  8.3 °C 30.4in /  1030.2hPa Calm     87% 0in /  0.0mm
23:04 50.7 °F /  10.4 °C 46.9 °F /  8.3 °C 30.4in /  1030.2hPa Calm     87% 0in /  0.0mm
23:09 50.7 °F /  10.4 °C 47.1 °F /  8.4 °C 30.4in /  1030.2hPa Calm     87% 0in /  0.0mm
23:14 50.9 °F /  10.5 °C 47.1 °F /  8.4 °C 30.4in /  1030.1hPa Calm     87% 0in /  0.0mm
23:19 50.9 °F /  10.5 °C 47.1 °F /  8.4 °C 30.4in /  1030.1hPa Calm     87% 0in /  0.0mm
23:24 50.7 °F /  10.4 °C 47.1 °F /  8.4 °C 30.4in /  1030.2hPa Calm     87% 0in /  0.0mm
23:29 50.7 °F /  10.4 °C 47.1 °F /  8.4 °C 30.4in /  1030.2hPa Calm     87% 0in /  0.0mm
23:34 50.7 °F /  10.4 °C 46.9 °F /  8.3 °C 30.4in /  1030.2hPa Calm     87% 0in /  0.0mm
23:39 50.7 °F /  10.4 °C 46.9 °F /  8.3 °C 30.4in /  1030.2hPa Calm     87% 0in /  0.0mm
23:44 50.7 °F /  10.4 °C 46.9 °F /  8.3 °C 30.4in /  1030.2hPa Calm     87% 0in /  0.0mm
23:49 50.7 °F /  10.4 °C 46.9 °F /  8.3 °C 30.4in /  1030.2hPa Calm     87% 0in /  0.0mm
23:54 50.7 °F /  10.4 °C 46.9 °F /  8.3 °C 30.4in /  1030.3hPa Calm     87% 0in /  0.0mm
23:59 50.7 °F /  10.4 °C 46.9 °F /  8.3 °C 30.4in /  1030.3hPa Calm     87% 0in /  0.0mm
Murcia-Puente Tocinos, España
Compliments of Weather Underground - 2.75 mb

La estación de MeteoMurcia.com, publica sus datos en los siguientes proyectos:

Weather Underground PWS IMURCIAP2 Meteoclimatic www.awekas.at

W3Counter
Web Analytics